sensor_id;sensor_type;location;lat;lon;timestamp;P1;durP1;ratioP1;P2;durP2;ratioP2
36833;SDS011;48003;52.084;5.224;2023-11-19T00:01:07;15.3;;;3.9;;
36833;SDS011;48003;52.084;5.224;2023-11-19T00:04:20;14.6;;;3.5;;
36833;SDS011;48003;52.084;5.224;2023-11-19T00:05:56;12.7;;;4.3;;
36833;SDS011;48003;52.084;5.224;2023-11-19T00:07:32;12.0;;;3.3;;
36833;SDS011;48003;52.084;5.224;2023-11-19T00:09:08;14.7;;;3.8;;
36833;SDS011;48003;52.084;5.224;2023-11-19T00:12:20;17.7;;;3.8;;
36833;SDS011;48003;52.084;5.224;2023-11-19T00:13:56;18.0;;;3.9;;
36833;SDS011;48003;52.084;5.224;2023-11-19T00:15:32;15.7;;;3.8;;
36833;SDS011;48003;52.084;5.224;2023-11-19T00:18:44;16.9;;;3.6;;
36833;SDS011;48003;52.084;5.224;2023-11-19T00:20:21;21.4;;;3.9;;
36833;SDS011;48003;52.084;5.224;2023-11-19T00:21:57;22.3;;;3.6;;
36833;SDS011;48003;52.084;5.224;2023-11-19T00:25:09;19.8;;;3.8;;
36833;SDS011;48003;52.084;5.224;2023-11-19T00:26:46;17.3;;;3.4;;
36833;SDS011;48003;52.084;5.224;2023-11-19T00:28:22;17.3;;;3.5;;
36833;SDS011;48003;52.084;5.224;2023-11-19T00:31:36;16.4;;;3.0;;
36833;SDS011;48003;52.084;5.224;2023-11-19T00:33:12;18.61;;;3.6;;
36833;SDS011;48003;52.084;5.224;2023-11-19T00:34:48;20.2;;;3.5;;
36833;SDS011;48003;52.084;5.224;2023-11-19T00:36:25;17.91;;;3.7;;
36833;SDS011;48003;52.084;5.224;2023-11-19T00:39:37;21.8;;;3.9;;
36833;SDS011;48003;52.084;5.224;2023-11-19T00:41:13;19.7;;;3.4;;
36833;SDS011;48003;52.084;5.224;2023-11-19T00:42:51;16.9;;;3.6;;
36833;SDS011;48003;52.084;5.224;2023-11-19T00:46:06;24.7;;;4.2;;
36833;SDS011;48003;52.084;5.224;2023-11-19T00:47:43;24.9;;;4.41;;
36833;SDS011;48003;52.084;5.224;2023-11-19T00:49:20;22.4;;;3.9;;
36833;SDS011;48003;52.084;5.224;2023-11-19T00:52:32;22.2;;;4.2;;
36833;SDS011;48003;52.084;5.224;2023-11-19T00:54:08;23.5;;;3.6;;
36833;SDS011;48003;52.084;5.224;2023-11-19T00:55:44;20.3;;;3.4;;
36833;SDS011;48003;52.084;5.224;2023-11-19T00:57:21;23.7;;;3.7;;
36833;SDS011;48003;52.084;5.224;2023-11-19T01:00:33;22.4;;;3.9;;
36833;SDS011;48003;52.084;5.224;2023-11-19T01:02:09;25.9;;;4.0;;
36833;SDS011;48003;52.084;5.224;2023-11-19T01:03:45;26.6;;;4.3;;
36833;SDS011;48003;52.084;5.224;2023-11-19T01:06:57;28.6;;;4.7;;
36833;SDS011;48003;52.084;5.224;2023-11-19T01:08:34;24.2;;;4.1;;
36833;SDS011;48003;52.084;5.224;2023-11-19T01:10:10;22.1;;;3.8;;
36833;SDS011;48003;52.084;5.224;2023-11-19T01:13:22;26.9;;;4.0;;
36833;SDS011;48003;52.084;5.224;2023-11-19T01:14:58;23.6;;;4.7;;
36833;SDS011;48003;52.084;5.224;2023-11-19T01:16:34;25.1;;;4.1;;
36833;SDS011;48003;52.084;5.224;2023-11-19T01:18:10;24.7;;;4.41;;
36833;SDS011;48003;52.084;5.224;2023-11-19T01:21:24;25.9;;;4.8;;
36833;SDS011;48003;52.084;5.224;2023-11-19T01:23:00;21.9;;;4.3;;
36833;SDS011;48003;52.084;5.224;2023-11-19T01:24:37;28.1;;;4.3;;
36833;SDS011;48003;52.084;5.224;2023-11-19T01:27:49;30.4;;;4.8;;
36833;SDS011;48003;52.084;5.224;2023-11-19T01:29:25;32.8;;;4.41;;
36833;SDS011;48003;52.084;5.224;2023-11-19T01:31:01;32.8;;;4.41;;
36833;SDS011;48003;52.084;5.224;2023-11-19T01:34:13;24.4;;;4.5;;
36833;SDS011;48003;52.084;5.224;2023-11-19T01:35:49;35.6;;;5.2;;
36833;SDS011;48003;52.084;5.224;2023-11-19T01:37:27;32.0;;;4.91;;
36833;SDS011;48003;52.084;5.224;2023-11-19T01:40:39;28.9;;;5.3;;
36833;SDS011;48003;52.084;5.224;2023-11-19T01:42:15;32.8;;;5.2;;
36833;SDS011;48003;52.084;5.224;2023-11-19T01:43:51;32.9;;;4.7;;
36833;SDS011;48003;52.084;5.224;2023-11-19T01:45:28;33.71;;;5.8;;
36833;SDS011;48003;52.084;5.224;2023-11-19T01:48:45;38.5;;;5.3;;
36833;SDS011;48003;52.084;5.224;2023-11-19T01:50:22;28.5;;;5.4;;
36833;SDS011;48003;52.084;5.224;2023-11-19T01:52:00;30.4;;;4.8;;
36833;SDS011;48003;52.084;5.224;2023-11-19T01:55:15;26.5;;;4.91;;
36833;SDS011;48003;52.084;5.224;2023-11-19T01:56:52;31.6;;;5.2;;
36833;SDS011;48003;52.084;5.224;2023-11-19T01:58:30;32.1;;;5.4;;
36833;SDS011;48003;52.084;5.224;2023-11-19T02:00:07;29.1;;;5.2;;
36833;SDS011;48003;52.084;5.224;2023-11-19T02:03:22;31.7;;;5.3;;
36833;SDS011;48003;52.084;5.224;2023-11-19T02:05:00;43.5;;;5.6;;
36833;SDS011;48003;52.084;5.224;2023-11-19T02:06:37;34.21;;;5.2;;
36833;SDS011;48003;52.084;5.224;2023-11-19T02:09:52;36.5;;;5.4;;
36833;SDS011;48003;52.084;5.224;2023-11-19T02:11:28;38.1;;;5.8;;
36833;SDS011;48003;52.084;5.224;2023-11-19T02:13:05;34.31;;;5.8;;
36833;SDS011;48003;52.084;5.224;2023-11-19T02:14:41;32.0;;;6.2;;
36833;SDS011;48003;52.084;5.224;2023-11-19T02:17:53;33.6;;;5.5;;
36833;SDS011;48003;52.084;5.224;2023-11-19T02:19:29;41.0;;;6.1;;
36833;SDS011;48003;52.084;5.224;2023-11-19T02:21:05;34.9;;;5.4;;
36833;SDS011;48003;52.084;5.224;2023-11-19T02:24:19;38.0;;;5.7;;
36833;SDS011;48003;52.084;5.224;2023-11-19T02:26:01;40.9;;;5.9;;
36833;SDS011;48003;52.084;5.224;2023-11-19T02:27:48;33.6;;;5.0;;
36833;SDS011;48003;52.084;5.224;2023-11-19T02:29:28;40.1;;;6.4;;
36833;SDS011;48003;52.084;5.224;2023-11-19T02:32:42;49.3;;;7.2;;
36833;SDS011;48003;52.084;5.224;2023-11-19T02:34:19;41.3;;;6.6;;
36833;SDS011;48003;52.084;5.224;2023-11-19T02:35:55;36.31;;;5.7;;
36833;SDS011;48003;52.084;5.224;2023-11-19T02:39:07;37.81;;;6.4;;
36833;SDS011;48003;52.084;5.224;2023-11-19T02:40:44;38.6;;;6.7;;
36833;SDS011;48003;52.084;5.224;2023-11-19T02:42:21;37.81;;;6.3;;
36833;SDS011;48003;52.084;5.224;2023-11-19T02:43:57;46.4;;;6.7;;
36833;SDS011;48003;52.084;5.224;2023-11-19T02:47:11;45.2;;;6.7;;
36833;SDS011;48003;52.084;5.224;2023-11-19T02:48:47;47.2;;;6.9;;
36833;SDS011;48003;52.084;5.224;2023-11-19T02:50:23;40.6;;;6.1;;
36833;SDS011;48003;52.084;5.224;2023-11-19T02:53:37;40.6;;;6.0;;
36833;SDS011;48003;52.084;5.224;2023-11-19T02:55:14;41.2;;;6.2;;
36833;SDS011;48003;52.084;5.224;2023-11-19T02:56:51;40.6;;;6.4;;
36833;SDS011;48003;52.084;5.224;2023-11-19T03:00:05;38.71;;;5.8;;
36833;SDS011;48003;52.084;5.224;2023-11-19T03:01:42;38.1;;;5.9;;
36833;SDS011;48003;52.084;5.224;2023-11-19T03:03:20;46.9;;;6.9;;
36833;SDS011;48003;52.084;5.224;2023-11-19T03:04:55;34.6;;;6.6;;
36833;SDS011;48003;52.084;5.224;2023-11-19T03:08:08;50.3;;;6.8;;
36833;SDS011;48003;52.084;5.224;2023-11-19T03:09:44;40.9;;;6.5;;
36833;SDS011;48003;52.084;5.224;2023-11-19T03:11:20;44.4;;;7.3;;
36833;SDS011;48003;52.084;5.224;2023-11-19T03:14:33;38.0;;;7.2;;
36833;SDS011;48003;52.084;5.224;2023-11-19T03:16:09;42.7;;;6.5;;
36833;SDS011;48003;52.084;5.224;2023-11-19T03:17:46;38.21;;;6.7;;
36833;SDS011;48003;52.084;5.224;2023-11-19T03:20:59;33.8;;;6.5;;
36833;SDS011;48003;52.084;5.224;2023-11-19T03:22:35;48.8;;;7.0;;
36833;SDS011;48003;52.084;5.224;2023-11-19T03:24:13;41.3;;;6.4;;
36833;SDS011;48003;52.084;5.224;2023-11-19T03:25:49;36.9;;;6.7;;
36833;SDS011;48003;52.084;5.224;2023-11-19T03:29:02;36.6;;;6.4;;
36833;SDS011;48003;52.084;5.224;2023-11-19T03:30:38;40.9;;;6.9;;
36833;SDS011;48003;52.084;5.224;2023-11-19T03:32:14;44.6;;;7.3;;
36833;SDS011;48003;52.084;5.224;2023-11-19T03:35:26;41.7;;;6.3;;
36833;SDS011;48003;52.084;5.224;2023-11-19T03:37:03;47.2;;;7.4;;
36833;SDS011;48003;52.084;5.224;2023-11-19T03:38:40;37.81;;;6.4;;
36833;SDS011;48003;52.084;5.224;2023-11-19T03:41:52;42.0;;;6.8;;
36833;SDS011;48003;52.084;5.224;2023-11-19T03:43:28;44.8;;;6.8;;
36833;SDS011;48003;52.084;5.224;2023-11-19T03:45:07;41.2;;;7.0;;
36833;SDS011;48003;52.084;5.224;2023-11-19T03:46:44;36.81;;;6.8;;
36833;SDS011;48003;52.084;5.224;2023-11-19T03:49:56;41.7;;;7.1;;
36833;SDS011;48003;52.084;5.224;2023-11-19T03:51:32;43.8;;;6.5;;
36833;SDS011;48003;52.084;5.224;2023-11-19T03:53:09;42.9;;;6.7;;
36833;SDS011;48003;52.084;5.224;2023-11-19T03:56:22;39.71;;;6.5;;
36833;SDS011;48003;52.084;5.224;2023-11-19T03:57:58;47.2;;;7.1;;
36833;SDS011;48003;52.084;5.224;2023-11-19T03:59:34;43.0;;;6.6;;
36833;SDS011;48003;52.084;5.224;2023-11-19T04:02:48;38.4;;;6.7;;
36833;SDS011;48003;52.084;5.224;2023-11-19T04:04:24;42.4;;;7.0;;
36833;SDS011;48003;52.084;5.224;2023-11-19T04:06:00;47.4;;;7.0;;
36833;SDS011;48003;52.084;5.224;2023-11-19T04:07:36;44.3;;;6.7;;
36833;SDS011;48003;52.084;5.224;2023-11-19T04:10:52;43.8;;;6.6;;
36833;SDS011;48003;52.084;5.224;2023-11-19T04:12:28;40.31;;;5.6;;
36833;SDS011;48003;52.084;5.224;2023-11-19T04:14:05;41.0;;;6.8;;
36833;SDS011;48003;52.084;5.224;2023-11-19T04:17:17;42.8;;;6.6;;
36833;SDS011;48003;52.084;5.224;2023-11-19T04:18:53;40.9;;;7.2;;
36833;SDS011;48003;52.084;5.224;2023-11-19T04:20:30;45.5;;;7.1;;
36833;SDS011;48003;52.084;5.224;2023-11-19T04:23:42;41.8;;;6.9;;
36833;SDS011;48003;52.084;5.224;2023-11-19T04:25:18;36.5;;;6.0;;
36833;SDS011;48003;52.084;5.224;2023-11-19T04:26:55;42.4;;;6.6;;
36833;SDS011;48003;52.084;5.224;2023-11-19T04:28:30;43.0;;;6.9;;
36833;SDS011;48003;52.084;5.224;2023-11-19T04:31:44;42.6;;;7.2;;
36833;SDS011;48003;52.084;5.224;2023-11-19T04:33:20;38.1;;;6.6;;
36833;SDS011;48003;52.084;5.224;2023-11-19T04:34:56;49.6;;;6.5;;
36833;SDS011;48003;52.084;5.224;2023-11-19T04:38:08;44.2;;;6.8;;
36833;SDS011;48003;52.084;5.224;2023-11-19T04:39:44;40.0;;;6.2;;
36833;SDS011;48003;52.084;5.224;2023-11-19T04:41:20;42.7;;;7.2;;
36833;SDS011;48003;52.084;5.224;2023-11-19T04:44:33;39.5;;;6.8;;
36833;SDS011;48003;52.084;5.224;2023-11-19T04:46:09;45.7;;;7.2;;
36833;SDS011;48003;52.084;5.224;2023-11-19T04:47:46;34.0;;;5.6;;
36833;SDS011;48003;52.084;5.224;2023-11-19T04:50:58;40.0;;;6.8;;
36833;SDS011;48003;52.084;5.224;2023-11-19T04:52:34;43.1;;;7.3;;
36833;SDS011;48003;52.084;5.224;2023-11-19T04:54:13;41.0;;;6.6;;
36833;SDS011;48003;52.084;5.224;2023-11-19T04:55:50;41.9;;;5.9;;
36833;SDS011;48003;52.084;5.224;2023-11-19T04:59:03;42.5;;;6.5;;
36833;SDS011;48003;52.084;5.224;2023-11-19T05:00:40;40.5;;;6.7;;
36833;SDS011;48003;52.084;5.224;2023-11-19T05:02:16;47.7;;;7.1;;
36833;SDS011;48003;52.084;5.224;2023-11-19T05:05:28;45.2;;;7.0;;
36833;SDS011;48003;52.084;5.224;2023-11-19T05:07:04;41.2;;;6.6;;
36833;SDS011;48003;52.084;5.224;2023-11-19T05:08:40;40.4;;;6.6;;
36833;SDS011;48003;52.084;5.224;2023-11-19T05:11:52;40.4;;;6.6;;
36833;SDS011;48003;52.084;5.224;2023-11-19T05:13:28;43.1;;;7.2;;
36833;SDS011;48003;52.084;5.224;2023-11-19T05:15:05;41.0;;;6.0;;
36833;SDS011;48003;52.084;5.224;2023-11-19T05:16:42;42.0;;;6.4;;
36833;SDS011;48003;52.084;5.224;2023-11-19T05:19:54;41.2;;;6.4;;
36833;SDS011;48003;52.084;5.224;2023-11-19T05:21:30;35.4;;;6.4;;
36833;SDS011;48003;52.084;5.224;2023-11-19T05:23:06;41.1;;;6.9;;
36833;SDS011;48003;52.084;5.224;2023-11-19T05:26:19;43.6;;;7.2;;
36833;SDS011;48003;52.084;5.224;2023-11-19T05:27:55;49.4;;;7.1;;
36833;SDS011;48003;52.084;5.224;2023-11-19T05:29:31;42.7;;;6.9;;
36833;SDS011;48003;52.084;5.224;2023-11-19T05:32:44;41.4;;;6.8;;
36833;SDS011;48003;52.084;5.224;2023-11-19T05:34:20;44.5;;;6.7;;
36833;SDS011;48003;52.084;5.224;2023-11-19T05:35:56;50.4;;;7.1;;
36833;SDS011;48003;52.084;5.224;2023-11-19T05:39:08;47.5;;;6.9;;
36833;SDS011;48003;52.084;5.224;2023-11-19T05:40:44;37.81;;;7.1;;
36833;SDS011;48003;52.084;5.224;2023-11-19T05:42:20;46.1;;;6.8;;
36833;SDS011;48003;52.084;5.224;2023-11-19T05:43:56;40.71;;;6.6;;
36833;SDS011;48003;52.084;5.224;2023-11-19T05:47:09;45.7;;;7.1;;
36833;SDS011;48003;52.084;5.224;2023-11-19T05:48:44;36.6;;;6.3;;
36833;SDS011;48003;52.084;5.224;2023-11-19T05:50:21;45.2;;;7.3;;
36833;SDS011;48003;52.084;5.224;2023-11-19T05:53:33;37.31;;;6.5;;
36833;SDS011;48003;52.084;5.224;2023-11-19T05:55:09;40.1;;;6.8;;
36833;SDS011;48003;52.084;5.224;2023-11-19T05:56:47;49.8;;;7.5;;
36833;SDS011;48003;52.084;5.224;2023-11-19T06:00:02;46.4;;;7.1;;
36833;SDS011;48003;52.084;5.224;2023-11-19T06:01:38;42.8;;;7.0;;
36833;SDS011;48003;52.084;5.224;2023-11-19T06:03:15;42.6;;;7.0;;
36833;SDS011;48003;52.084;5.224;2023-11-19T06:04:51;40.4;;;7.0;;
36833;SDS011;48003;52.084;5.224;2023-11-19T06:08:05;46.4;;;7.4;;
36833;SDS011;48003;52.084;5.224;2023-11-19T06:09:41;47.9;;;7.1;;
36833;SDS011;48003;52.084;5.224;2023-11-19T06:11:17;39.5;;;6.7;;
36833;SDS011;48003;52.084;5.224;2023-11-19T06:14:29;45.2;;;7.6;;
36833;SDS011;48003;52.084;5.224;2023-11-19T06:16:06;46.5;;;6.8;;
36833;SDS011;48003;52.084;5.224;2023-11-19T06:17:43;39.81;;;7.1;;
36833;SDS011;48003;52.084;5.224;2023-11-19T06:20:55;44.4;;;7.4;;
36833;SDS011;48003;52.084;5.224;2023-11-19T06:22:31;48.4;;;7.4;;
36833;SDS011;48003;52.084;5.224;2023-11-19T06:24:08;51.1;;;7.1;;
36833;SDS011;48003;52.084;5.224;2023-11-19T06:25:44;46.9;;;7.2;;
36833;SDS011;48003;52.084;5.224;2023-11-19T06:28:57;46.9;;;7.2;;
36833;SDS011;48003;52.084;5.224;2023-11-19T06:30:33;42.3;;;6.5;;
36833;SDS011;48003;52.084;5.224;2023-11-19T06:32:09;44.3;;;7.0;;
36833;SDS011;48003;52.084;5.224;2023-11-19T06:35:22;41.0;;;7.0;;
36833;SDS011;48003;52.084;5.224;2023-11-19T06:36:58;45.8;;;7.4;;
36833;SDS011;48003;52.084;5.224;2023-11-19T06:38:34;47.0;;;7.0;;
36833;SDS011;48003;52.084;5.224;2023-11-19T06:41:47;32.6;;;6.1;;
36833;SDS011;48003;52.084;5.224;2023-11-19T06:43:24;41.7;;;6.4;;
36833;SDS011;48003;52.084;5.224;2023-11-19T06:45:01;39.4;;;6.3;;
36833;SDS011;48003;52.084;5.224;2023-11-19T06:46:37;44.8;;;7.4;;
36833;SDS011;48003;52.084;5.224;2023-11-19T06:49:50;45.8;;;7.4;;
36833;SDS011;48003;52.084;5.224;2023-11-19T06:51:26;43.8;;;6.7;;
36833;SDS011;48003;52.084;5.224;2023-11-19T06:53:03;38.1;;;6.4;;
36833;SDS011;48003;52.084;5.224;2023-11-19T06:56:17;42.0;;;6.5;;
36833;SDS011;48003;52.084;5.224;2023-11-19T06:57:57;35.81;;;6.6;;
36833;SDS011;48003;52.084;5.224;2023-11-19T06:59:36;45.4;;;6.8;;
36833;SDS011;48003;52.084;5.224;2023-11-19T07:02:49;43.4;;;6.7;;
36833;SDS011;48003;52.084;5.224;2023-11-19T07:04:25;34.71;;;6.7;;
36833;SDS011;48003;52.084;5.224;2023-11-19T07:06:03;45.3;;;6.8;;
36833;SDS011;48003;52.084;5.224;2023-11-19T07:07:40;44.1;;;7.0;;
36833;SDS011;48003;52.084;5.224;2023-11-19T07:10:52;41.8;;;7.1;;
36833;SDS011;48003;52.084;5.224;2023-11-19T07:12:28;40.71;;;7.3;;
36833;SDS011;48003;52.084;5.224;2023-11-19T07:14:05;46.4;;;6.8;;
36833;SDS011;48003;52.084;5.224;2023-11-19T07:17:18;41.4;;;7.0;;
36833;SDS011;48003;52.084;5.224;2023-11-19T07:18:55;32.8;;;6.5;;
36833;SDS011;48003;52.084;5.224;2023-11-19T07:20:32;39.0;;;6.3;;
36833;SDS011;48003;52.084;5.224;2023-11-19T07:23:45;43.4;;;7.0;;
36833;SDS011;48003;52.084;5.224;2023-11-19T07:25:22;43.1;;;6.6;;
36833;SDS011;48003;52.084;5.224;2023-11-19T07:26:58;43.4;;;6.7;;
36833;SDS011;48003;52.084;5.224;2023-11-19T07:28:34;37.9;;;7.0;;
36833;SDS011;48003;52.084;5.224;2023-11-19T07:31:48;47.5;;;7.8;;
36833;SDS011;48003;52.084;5.224;2023-11-19T07:33:24;46.0;;;6.6;;
36833;SDS011;48003;52.084;5.224;2023-11-19T07:35:00;41.7;;;7.4;;
36833;SDS011;48003;52.084;5.224;2023-11-19T07:38:13;45.3;;;6.3;;
36833;SDS011;48003;52.084;5.224;2023-11-19T07:39:49;49.3;;;7.2;;
36833;SDS011;48003;52.084;5.224;2023-11-19T07:41:25;40.0;;;6.4;;
36833;SDS011;48003;52.084;5.224;2023-11-19T07:44:38;43.4;;;7.0;;
36833;SDS011;48003;52.084;5.224;2023-11-19T07:46:14;38.21;;;6.5;;
36833;SDS011;48003;52.084;5.224;2023-11-19T07:47:50;45.6;;;6.6;;
36833;SDS011;48003;52.084;5.224;2023-11-19T07:49:27;41.9;;;6.4;;
36833;SDS011;48003;52.084;5.224;2023-11-19T07:52:39;41.9;;;6.4;;
36833;SDS011;48003;52.084;5.224;2023-11-19T07:54:15;40.71;;;6.8;;
36833;SDS011;48003;52.084;5.224;2023-11-19T07:55:52;42.3;;;7.0;;
36833;SDS011;48003;52.084;5.224;2023-11-19T07:59:05;40.31;;;5.9;;
36833;SDS011;48003;52.084;5.224;2023-11-19T08:00:41;40.5;;;7.0;;
36833;SDS011;48003;52.084;5.224;2023-11-19T08:02:17;41.8;;;6.5;;
36833;SDS011;48003;52.084;5.224;2023-11-19T08:05:30;46.2;;;6.9;;
36833;SDS011;48003;52.084;5.224;2023-11-19T08:07:07;44.8;;;7.4;;
36833;SDS011;48003;52.084;5.224;2023-11-19T08:08:43;44.6;;;6.9;;
36833;SDS011;48003;52.084;5.224;2023-11-19T08:10:21;45.7;;;6.4;;
36833;SDS011;48003;52.084;5.224;2023-11-19T08:13:34;43.8;;;6.3;;
36833;SDS011;48003;52.084;5.224;2023-11-19T08:15:11;42.8;;;6.7;;
36833;SDS011;48003;52.084;5.224;2023-11-19T08:16:47;41.9;;;6.5;;
36833;SDS011;48003;52.084;5.224;2023-11-19T08:19:59;51.3;;;6.8;;
36833;SDS011;48003;52.084;5.224;2023-11-19T08:21:35;41.8;;;7.1;;
36833;SDS011;48003;52.084;5.224;2023-11-19T08:23:11;42.7;;;6.3;;
36833;SDS011;48003;52.084;5.224;2023-11-19T08:26:25;49.4;;;6.7;;
36833;SDS011;48003;52.084;5.224;2023-11-19T08:28:01;54.2;;;7.8;;
36833;SDS011;48003;52.084;5.224;2023-11-19T08:29:37;48.9;;;6.9;;
36833;SDS011;48003;52.084;5.224;2023-11-19T08:31:13;44.2;;;6.5;;
36833;SDS011;48003;52.084;5.224;2023-11-19T08:34:25;40.31;;;6.9;;
36833;SDS011;48003;52.084;5.224;2023-11-19T08:36:03;38.9;;;5.8;;
36833;SDS011;48003;52.084;5.224;2023-11-19T08:37:40;39.9;;;6.1;;
36833;SDS011;48003;52.084;5.224;2023-11-19T08:40:52;36.5;;;6.3;;
36833;SDS011;48003;52.084;5.224;2023-11-19T08:42:28;44.7;;;6.9;;
36833;SDS011;48003;52.084;5.224;2023-11-19T08:44:04;41.5;;;6.6;;
36833;SDS011;48003;52.084;5.224;2023-11-19T08:47:16;51.8;;;7.5;;
36833;SDS011;48003;52.084;5.224;2023-11-19T08:48:54;36.4;;;6.4;;
36833;SDS011;48003;52.084;5.224;2023-11-19T08:50:31;36.9;;;6.6;;
36833;SDS011;48003;52.084;5.224;2023-11-19T08:52:08;46.3;;;6.5;;
36833;SDS011;48003;52.084;5.224;2023-11-19T08:55:21;47.5;;;6.9;;
36833;SDS011;48003;52.084;5.224;2023-11-19T08:56:57;44.8;;;6.7;;
36833;SDS011;48003;52.084;5.224;2023-11-19T08:58:33;41.4;;;7.2;;
36833;SDS011;48003;52.084;5.224;2023-11-19T09:01:48;44.3;;;6.9;;
36833;SDS011;48003;52.084;5.224;2023-11-19T09:03:25;36.1;;;6.9;;
36833;SDS011;48003;52.084;5.224;2023-11-19T09:05:01;42.2;;;5.5;;
36833;SDS011;48003;52.084;5.224;2023-11-19T09:08:15;34.6;;;6.2;;
36833;SDS011;48003;52.084;5.224;2023-11-19T09:09:52;39.81;;;6.5;;
36833;SDS011;48003;52.084;5.224;2023-11-19T09:11:29;46.7;;;6.3;;
36833;SDS011;48003;52.084;5.224;2023-11-19T09:13:05;38.9;;;6.7;;
36833;SDS011;48003;52.084;5.224;2023-11-19T09:16:18;37.71;;;6.4;;
36833;SDS011;48003;52.084;5.224;2023-11-19T09:17:54;34.21;;;6.4;;
36833;SDS011;48003;52.084;5.224;2023-11-19T09:19:32;41.2;;;5.7;;
36833;SDS011;48003;52.084;5.224;2023-11-19T09:22:46;44.7;;;6.9;;
36833;SDS011;48003;52.084;5.224;2023-11-19T09:24:22;38.21;;;6.1;;
36833;SDS011;48003;52.084;5.224;2023-11-19T09:25:58;38.21;;;5.8;;
36833;SDS011;48003;52.084;5.224;2023-11-19T09:29:12;36.81;;;6.3;;
36833;SDS011;48003;52.084;5.224;2023-11-19T09:30:49;34.5;;;6.2;;
36833;SDS011;48003;52.084;5.224;2023-11-19T09:32:26;36.1;;;6.5;;
36833;SDS011;48003;52.084;5.224;2023-11-19T09:34:03;45.9;;;6.7;;
36833;SDS011;48003;52.084;5.224;2023-11-19T09:37:15;44.4;;;6.9;;
36833;SDS011;48003;52.084;5.224;2023-11-19T09:38:52;41.4;;;6.5;;
36833;SDS011;48003;52.084;5.224;2023-11-19T09:40:28;40.31;;;6.6;;
36833;SDS011;48003;52.084;5.224;2023-11-19T09:43:41;40.5;;;6.2;;
36833;SDS011;48003;52.084;5.224;2023-11-19T09:45:19;41.8;;;6.1;;
36833;SDS011;48003;52.084;5.224;2023-11-19T09:46:57;33.1;;;6.1;;
36833;SDS011;48003;52.084;5.224;2023-11-19T09:48:35;41.8;;;6.3;;
36833;SDS011;48003;52.084;5.224;2023-11-19T09:51:53;37.71;;;6.3;;
36833;SDS011;48003;52.084;5.224;2023-11-19T09:53:30;36.6;;;5.9;;
36833;SDS011;48003;52.084;5.224;2023-11-19T09:55:08;41.0;;;6.1;;
36833;SDS011;48003;52.084;5.224;2023-11-19T09:58:22;34.71;;;6.1;;
36833;SDS011;48003;52.084;5.224;2023-11-19T09:59:58;37.0;;;6.5;;
36833;SDS011;48003;52.084;5.224;2023-11-19T10:01:36;44.3;;;6.8;;
36833;SDS011;48003;52.084;5.224;2023-11-19T10:04:50;36.9;;;6.3;;
36833;SDS011;48003;52.084;5.224;2023-11-19T10:06:28;42.5;;;6.7;;
36833;SDS011;48003;52.084;5.224;2023-11-19T10:08:05;43.1;;;6.4;;
36833;SDS011;48003;52.084;5.224;2023-11-19T10:09:42;42.3;;;7.4;;
36833;SDS011;48003;52.084;5.224;2023-11-19T10:12:54;37.4;;;5.9;;
36833;SDS011;48003;52.084;5.224;2023-11-19T10:14:31;36.0;;;6.1;;
36833;SDS011;48003;52.084;5.224;2023-11-19T10:16:09;43.6;;;6.3;;
36833;SDS011;48003;52.084;5.224;2023-11-19T10:19:24;41.1;;;7.1;;
36833;SDS011;48003;52.084;5.224;2023-11-19T10:21:00;35.5;;;6.1;;
36833;SDS011;48003;52.084;5.224;2023-11-19T10:22:37;36.6;;;6.5;;
36833;SDS011;48003;52.084;5.224;2023-11-19T10:24:14;38.81;;;6.5;;
36833;SDS011;48003;52.084;5.224;2023-11-19T10:27:29;35.81;;;5.8;;
36833;SDS011;48003;52.084;5.224;2023-11-19T10:29:06;34.71;;;6.0;;
36833;SDS011;48003;52.084;5.224;2023-11-19T10:30:42;41.2;;;6.3;;
36833;SDS011;48003;52.084;5.224;2023-11-19T10:33:55;33.1;;;5.5;;
36833;SDS011;48003;52.084;5.224;2023-11-19T10:35:32;36.6;;;5.9;;
36833;SDS011;48003;52.084;5.224;2023-11-19T10:37:09;47.8;;;5.9;;
36833;SDS011;48003;52.084;5.224;2023-11-19T10:39:03;40.0;;;6.1;;
36833;SDS011;48003;52.084;5.224;2023-11-19T10:42:16;43.6;;;6.6;;
36833;SDS011;48003;52.084;5.224;2023-11-19T10:43:52;37.31;;;5.9;;
36833;SDS011;48003;52.084;5.224;2023-11-19T10:45:28;37.81;;;6.0;;
36833;SDS011;48003;52.084;5.224;2023-11-19T10:48:44;36.21;;;5.6;;
36833;SDS011;48003;52.084;5.224;2023-11-19T10:50:20;27.5;;;5.3;;
36833;SDS011;48003;52.084;5.224;2023-11-19T10:51:56;34.1;;;5.6;;
36833;SDS011;48003;52.084;5.224;2023-11-19T10:53:35;35.31;;;6.2;;
36833;SDS011;48003;52.084;5.224;2023-11-19T10:56:55;39.21;;;6.3;;
36833;SDS011;48003;52.084;5.224;2023-11-19T10:58:35;32.9;;;5.6;;
36833;SDS011;48003;52.084;5.224;2023-11-19T11:00:12;38.81;;;6.2;;
36833;SDS011;48003;52.084;5.224;2023-11-19T11:01:55;39.21;;;6.1;;
36833;SDS011;48003;52.084;5.224;2023-11-19T11:05:16;40.4;;;6.7;;
36833;SDS011;48003;52.084;5.224;2023-11-19T11:06:54;37.31;;;6.1;;
36833;SDS011;48003;52.084;5.224;2023-11-19T11:08:31;33.6;;;5.9;;
36833;SDS011;48003;52.084;5.224;2023-11-19T11:10:12;37.4;;;5.7;;
36833;SDS011;48003;52.084;5.224;2023-11-19T11:13:27;32.21;;;5.9;;
36833;SDS011;48003;52.084;5.224;2023-11-19T11:15:03;33.71;;;5.4;;
36833;SDS011;48003;52.084;5.224;2023-11-19T11:16:43;38.5;;;6.2;;
36833;SDS011;48003;52.084;5.224;2023-11-19T11:19:56;38.4;;;6.6;;
36833;SDS011;48003;52.084;5.224;2023-11-19T11:21:33;38.4;;;6.6;;
36833;SDS011;48003;52.084;5.224;2023-11-19T11:23:19;38.5;;;5.9;;
36833;SDS011;48003;52.084;5.224;2023-11-19T11:25:25;35.21;;;5.8;;
36833;SDS011;48003;52.084;5.224;2023-11-19T11:27:20;35.31;;;6.1;;
36833;SDS011;48003;52.084;5.224;2023-11-19T11:29:20;36.5;;;5.8;;
36833;SDS011;48003;52.084;5.224;2023-11-19T11:31:09;43.3;;;6.3;;
36833;SDS011;48003;52.084;5.224;2023-11-19T11:34:53;38.1;;;6.2;;
36833;SDS011;48003;52.084;5.224;2023-11-19T11:36:45;40.21;;;6.3;;
36833;SDS011;48003;52.084;5.224;2023-11-19T11:38:43;36.6;;;6.0;;
36833;SDS011;48003;52.084;5.224;2023-11-19T11:40:20;35.81;;;6.2;;
36833;SDS011;48003;52.084;5.224;2023-11-19T11:42:33;37.31;;;6.1;;
36833;SDS011;48003;52.084;5.224;2023-11-19T11:44:10;34.9;;;6.0;;
36833;SDS011;48003;52.084;5.224;2023-11-19T11:45:46;37.0;;;5.8;;
36833;SDS011;48003;52.084;5.224;2023-11-19T11:49:01;37.6;;;6.1;;
36833;SDS011;48003;52.084;5.224;2023-11-19T11:50:50;30.0;;;5.6;;
36833;SDS011;48003;52.084;5.224;2023-11-19T11:52:29;28.6;;;5.0;;
36833;SDS011;48003;52.084;5.224;2023-11-19T11:54:07;36.81;;;6.0;;
36833;SDS011;48003;52.084;5.224;2023-11-19T11:57:40;31.1;;;5.3;;
36833;SDS011;48003;52.084;5.224;2023-11-19T11:59:18;30.2;;;5.6;;
36833;SDS011;48003;52.084;5.224;2023-11-19T12:00:56;31.8;;;5.6;;
36833;SDS011;48003;52.084;5.224;2023-11-19T12:02:34;30.6;;;5.2;;
36833;SDS011;48003;52.084;5.224;2023-11-19T12:05:47;31.4;;;5.2;;
36833;SDS011;48003;52.084;5.224;2023-11-19T12:07:24;29.8;;;5.11;;
36833;SDS011;48003;52.084;5.224;2023-11-19T12:09:01;31.9;;;5.2;;
36833;SDS011;48003;52.084;5.224;2023-11-19T12:12:22;29.9;;;5.2;;
36833;SDS011;48003;52.084;5.224;2023-11-19T12:14:02;32.4;;;4.91;;
36833;SDS011;48003;52.084;5.224;2023-11-19T12:16:07;30.7;;;5.11;;
36833;SDS011;48003;52.084;5.224;2023-11-19T12:17:47;29.1;;;5.11;;
36833;SDS011;48003;52.084;5.224;2023-11-19T12:19:25;29.9;;;4.7;;
36833;SDS011;48003;52.084;5.224;2023-11-19T12:22:40;30.4;;;4.91;;
36833;SDS011;48003;52.084;5.224;2023-11-19T12:24:17;33.5;;;5.3;;
36833;SDS011;48003;52.084;5.224;2023-11-19T12:25:55;26.7;;;5.0;;
36833;SDS011;48003;52.084;5.224;2023-11-19T12:29:08;26.1;;;4.41;;
36833;SDS011;48003;52.084;5.224;2023-11-19T12:30:44;28.6;;;4.7;;
36833;SDS011;48003;52.084;5.224;2023-11-19T12:32:22;28.4;;;5.11;;
36833;SDS011;48003;52.084;5.224;2023-11-19T12:33:58;30.2;;;5.11;;
36833;SDS011;48003;52.084;5.224;2023-11-19T12:37:15;26.7;;;4.91;;
36833;SDS011;48003;52.084;5.224;2023-11-19T12:38:53;27.2;;;4.7;;
36833;SDS011;48003;52.084;5.224;2023-11-19T12:40:30;28.6;;;5.2;;
36833;SDS011;48003;52.084;5.224;2023-11-19T12:43:42;29.0;;;4.91;;
36833;SDS011;48003;52.084;5.224;2023-11-19T12:45:20;30.4;;;5.11;;